Time;durP1;ratioP1;P1;durP2;ratioP2;P2;SDS_P1;SDS_P2;PMS_P1;PMS_P2;Temp;Humidity;BMP_temperature;BMP_pressure;BME280_temperature;BME280_humidity;BME280_pressure;Samples;Min_cycle;Max_cycle;Signal;HPM_P1;HPM_P2
2021/05/28 00:00:15;;;;;;;17.13;12.40;;;;;;;10.17;68.98;99060.39;125748;1104;64507;-94
2021/05/28 00:03:03;;;;;;;18.63;13.63;;;;;;;10.08;69.33;99069.80;126336;1104;64398;-94
2021/05/28 00:05:31;;;;;;;17.07;13.60;;;;;;;10.07;69.54;99054.78;126257;1105;64281;-94
2021/05/28 00:08:00;;;;;;;19.23;13.73;;;;;;;10.08;69.55;99069.80;126258;1104;64355;-94
2021/05/28 00:10:30;;;;;;;16.73;13.43;;;;;;;10.11;69.64;99059.83;126321;1104;65018;-94
2021/05/28 00:12:58;;;;;;;19.20;12.57;;;;;;;10.13;69.90;99057.05;126264;1104;64343;-94
2021/05/28 00:15:27;;;;;;;19.20;13.97;;;;;;;10.13;70.03;99061.52;126104;1097;64355;-96
2021/05/28 00:18:00;;;;;;;18.03;13.27;;;;;;;10.07;70.08;99063.62;126118;1104;64310;-93
2021/05/28 00:20:32;;;;;;;15.17;12.50;;;;;;;9.99;70.44;99065.07;126091;1104;64460;-94
2021/05/28 00:23:00;;;;;;;15.50;12.40;;;;;;;9.92;70.74;99075.23;126231;1104;64352;-93
2021/05/28 00:25:29;;;;;;;19.57;13.63;;;;;;;9.85;70.78;99071.27;126171;1104;64288;-93
2021/05/28 00:27:59;;;;;;;16.50;13.00;;;;;;;9.82;70.78;99067.00;126285;1104;64429;-94
2021/05/28 00:30:27;;;;;;;15.60;12.97;;;;;;;9.85;71.05;99069.46;126385;1104;64294;-93
2021/05/28 00:32:58;;;;;;;14.90;13.03;;;;;;;9.84;71.06;99073.05;126209;1104;64214;-93
2021/05/28 00:35:25;;;;;;;;;;;;;;;9.87;71.11;99074.67;126365;1096;64332;-95
2021/05/28 00:37:55;;;;;;;16.50;13.07;;;;;;;9.92;71.27;99063.73;126366;1094;64391;-93
2021/05/28 00:40:25;;;;;;;15.20;13.43;;;;;;;9.94;71.23;99069.83;126537;1104;64281;-93
2021/05/28 00:42:55;;;;;;;16.93;14.28;;;;;;;9.96;71.30;99071.45;126556;1096;64268;-94
2021/05/28 00:45:42;;;;;;;14.00;12.50;;;;;;;10.03;71.28;99071.89;126872;1104;62983;-94
2021/05/28 00:48:15;;;;;;;16.93;13.40;;;;;;;10.06;71.10;99074.39;126733;1097;64325;-93
2021/05/28 00:50:42;;;;;;;19.43;13.20;;;;;;;10.08;71.03;99076.00;126686;1104;64223;-94
2021/05/28 00:53:31;;;;;;;14.60;12.07;;;;;;;10.10;71.11;99081.21;126938;1104;64342;-95
2021/05/28 00:56:03;;;;;;;17.73;12.85;;;;;;;10.09;71.07;99075.03;127036;1104;64342;-94
2021/05/28 00:58:31;;;;;;;15.37;11.93;;;;;;;10.12;71.41;99079.31;126882;1104;64160;-94
2021/05/28 01:00:58;;;;;;;14.67;12.67;;;;;;;10.11;70.90;99085.60;128051;1104;63429;-94
2021/05/28 01:03:26;;;;;;;14.03;12.10;;;;;;;10.13;71.36;99077.50;128329;1104;61653;-94
2021/05/28 01:05:55;;;;;;;17.10;12.60;;;;;;;10.17;71.32;99079.88;128489;1104;61274;-94
2021/05/28 01:08:23;;;;;;;16.83;13.27;;;;;;;10.17;71.20;99090.53;128527;1104;61774;-94
2021/05/28 01:10:51;;;;;;;15.57;12.30;;;;;;;10.15;71.27;99080.92;128481;1104;61601;-94
2021/05/28 01:13:21;;;;;;;15.37;11.87;;;;;;;10.09;71.36;99095.48;128465;1104;61834;-93
2021/05/28 01:15:55;;;;;;;15.20;12.80;;;;;;;10.03;71.04;99079.88;126937;1104;63064;-93
2021/05/28 01:18:25;;;;;;;14.27;11.90;;;;;;;10.00;71.62;99099.56;126747;1104;63114;-93
2021/05/28 01:20:56;;;;;;;17.97;13.03;;;;;;;10.01;71.83;99098.63;126481;1104;64201;-95
2021/05/28 01:23:28;;;;;;;16.87;12.20;;;;;;;10.02;71.88;99103.00;126604;1104;64280;-93
2021/05/28 01:26:17;;;;;;;14.93;11.93;;;;;;;9.98;71.93;99097.95;126420;1097;64310;-93
2021/05/28 01:28:44;;;;;;;14.53;10.40;;;;;;;9.98;72.01;99101.50;126284;1104;64208;-94
2021/05/28 01:31:14;;;;;;;14.60;12.07;;;;;;;9.94;72.10;99099.96;127421;1097;64435;-93
2021/05/28 01:33:46;;;;;;;14.73;11.50;;;;;;;9.93;72.05;99108.06;126542;1104;64432;-94
2021/05/28 01:36:14;;;;;;;14.90;12.40;;;;;;;9.93;72.44;99102.73;126129;1104;64139;-94
2021/05/28 01:38:42;;;;;;;15.40;12.33;;;;;;;9.86;72.16;99103.10;126205;1104;64416;-94
2021/05/28 01:41:12;;;;;;;14.77;12.83;;;;;;;9.82;72.22;99106.92;126133;1104;64397;-94
2021/05/28 01:43:40;;;;;;;14.90;12.25;;;;;;;9.82;72.42;99108.70;126239;1104;64370;-91
2021/05/28 01:46:13;;;;;;;17.20;12.30;;;;;;;9.80;72.41;99114.14;126314;1104;64273;-93
2021/05/28 01:49:02;;;;;;;13.20;11.80;;;;;;;9.82;72.46;99120.23;126574;1104;64333;-93
2021/05/28 01:51:36;;;;;;;;;;;;;;;9.84;72.62;99122.78;126838;1104;64242;-93
2021/05/28 01:54:25;;;;;;;14.70;12.03;;;;;;;9.81;72.50;99125.63;126768;1097;64346;-92
2021/05/28 01:56:52;;;;;;;14.85;12.35;;;;;;;9.78;72.55;99125.83;125677;1104;64317;-93
2021/05/28 01:59:27;;;;;;;14.67;12.63;;;;;;;9.70;72.46;99125.45;125597;1096;64422;-93
2021/05/28 02:01:56;;;;;;;18.90;13.93;;;;;;;9.63;72.43;99128.46;125566;1104;64336;-95
2021/05/28 02:04:25;;;;;;;15.03;12.40;;;;;;;9.58;72.69;99125.22;125472;1097;64472;-93
2021/05/28 02:07:12;;;;;;;13.67;12.23;;;;;;;9.54;72.85;99120.20;125802;1104;64312;-92
2021/05/28 02:09:41;;;;;;;13.90;11.53;;;;;;;9.47;72.89;99122.36;126545;1104;64330;-95
2021/05/28 02:12:10;;;;;;;14.77;12.20;;;;;;;9.47;73.02;99124.17;125922;1097;64461;-94
2021/05/28 02:14:38;;;;;;;15.70;14.00;;;;;;;9.46;72.83;99118.00;125855;1104;64143;-95
2021/05/28 02:17:26;;;;;;;15.77;12.90;;;;;;;9.48;72.91;99128.53;126064;1104;64297;-95
2021/05/28 02:19:55;;;;;;;18.50;14.97;;;;;;;9.48;72.75;99133.86;126013;1097;64387;-93
2021/05/28 02:22:25;;;;;;;14.05;12.45;;;;;;;9.48;73.11;99128.53;126142;1104;64249;-94
2021/05/28 02:24:55;;;;;;;15.67;13.13;;;;;;;9.45;73.14;99122.48;126120;1104;64392;-94
2021/05/28 02:27:23;;;;;;;15.50;13.73;;;;;;;9.42;73.11;99127.11;126048;1104;64160;-95
2021/05/28 02:29:50;;;;;;;17.50;14.27;;;;;;;9.41;73.14;99128.06;126092;1097;64239;-94
2021/05/28 02:32:21;;;;;;;15.23;13.23;;;;;;;9.41;73.44;99131.58;125974;1104;64277;-94
2021/05/28 02:34:51;;;;;;;15.70;12.70;;;;;;;9.44;73.58;99131.39;126093;1104;64245;-93
2021/05/28 02:37:18;;;;;;;16.57;13.80;;;;;;;9.50;73.52;99137.29;126130;1104;64272;-94
2021/05/28 02:39:51;;;;;;;13.30;11.90;;;;;;;9.53;73.52;99137.09;125816;1104;64393;-94
2021/05/28 02:42:19;;;;;;;14.80;13.20;;;;;;;9.55;73.38;99135.20;125812;1104;64332;-93
2021/05/28 02:44:46;;;;;;;15.53;13.43;;;;;;;9.58;73.63;99135.86;125699;1104;64335;-94
2021/05/28 02:47:14;;;;;;;19.90;14.80;;;;;;;9.60;73.56;99128.66;125794;1105;63231;-93
2021/05/28 02:49:41;;;;;;;17.30;14.10;;;;;;;9.61;73.46;99129.50;125512;1104;64403;-95
2021/05/28 02:52:10;;;;;;;16.87;14.97;;;;;;;9.62;73.58;99132.08;125607;1097;64344;-94
2021/05/28 02:54:39;;;;;;;17.10;14.03;;;;;;;9.62;73.50;99132.08;125762;1097;64325;-93
2021/05/28 02:57:07;;;;;;;18.30;13.87;;;;;;;9.63;73.45;99125.80;125375;1097;64364;-94
2021/05/28 02:59:54;;;;;;;16.83;13.03;;;;;;;9.60;73.63;99125.99;125635;1096;64235;-94
2021/05/28 03:02:23;;;;;;;15.97;13.80;;;;;;;9.58;73.75;99129.70;125503;1104;64309;-95
2021/05/28 03:04:52;;;;;;;16.47;12.97;;;;;;;9.56;73.88;99136.94;125561;1096;64329;-95
2021/05/28 03:07:35;;;;;;;17.20;13.57;;;;;;;9.62;73.72;99142.73;125727;1104;64395;-95
2021/05/28 03:10:05;;;;;;;18.47;14.30;;;;;;;9.64;73.77;99139.98;125823;1104;64377;-94
2021/05/28 03:12:34;;;;;;;17.58;14.55;;;;;;;9.66;73.80;99140.72;125711;1104;64268;-93
2021/05/28 03:15:06;;;;;;;16.77;14.23;;;;;;;9.67;73.71;99137.98;125365;1097;64336;-94
2021/05/28 03:17:35;;;;;;;18.37;13.80;;;;;;;9.69;73.64;99135.24;125355;1104;64256;-94
2021/05/28 03:20:16;;;;;;;16.93;15.13;;;;;;;9.67;73.70;99131.81;125348;1096;64249;-94
2021/05/28 03:23:06;;;;;;;15.23;13.37;;;;;;;9.72;73.77;99131.54;125465;1104;64224;-94
2021/05/28 03:25:58;;;;;;;15.13;13.27;;;;;;;9.76;73.62;99141.03;125454;1104;64345;-94
2021/05/28 03:28:26;;;;;;;17.77;13.20;;;;;;;9.78;73.66;99139.98;125409;1104;64361;-95
2021/05/28 03:31:03;;;;;;;14.03;12.07;;;;;;;9.80;73.56;99148.74;125818;1104;64454;-94
2021/05/28 03:33:31;;;;;;;16.73;13.20;;;;;;;9.81;73.54;99157.58;125994;1104;64336;-95
2021/05/28 03:36:20;;;;;;;15.07;12.70;;;;;;;9.80;73.64;99155.88;125518;1096;64328;-94
2021/05/28 03:38:48;;;;;;;19.03;14.33;;;;;;;9.74;73.58;99157.11;125455;1104;64701;-93
2021/05/28 03:41:36;;;;;;;16.25;14.45;;;;;;;9.68;73.58;99157.46;125557;1104;64269;-95
2021/05/28 03:44:24;;;;;;;15.10;13.60;;;;;;;9.64;73.71;99161.28;125510;1097;64332;-93
2021/05/28 03:47:11;;;;;;;15.37;13.77;;;;;;;9.60;73.74;99165.05;125524;1097;64557;-96
2021/05/28 03:49:44;;;;;;;15.80;13.67;;;;;;;9.58;73.86;99164.28;125424;1096;64333;-94
2021/05/28 03:52:15;;;;;;;14.83;13.33;;;;;;;9.58;73.86;99159.81;125524;1096;64726;-94
2021/05/28 03:54:43;;;;;;;15.73;12.87;;;;;;;9.61;73.94;99161.44;125427;1097;64254;-94
2021/05/28 03:57:11;;;;;;;14.83;12.87;;;;;;;9.64;74.04;99170.11;125540;1104;64875;-94
2021/05/28 03:59:38;;;;;;;15.90;14.20;;;;;;;9.86;73.99;99166.14;125533;1096;64413;-94
2021/05/28 04:02:25;;;;;;;14.90;13.20;;;;;;;10.07;73.70;99167.47;125498;1104;64285;-94
2021/05/28 04:04:53;;;;;;;17.67;14.10;;;;;;;10.73;72.86;99162.47;125305;1104;64346;-94
2021/05/28 04:07:24;;;;;;;16.43;13.53;;;;;;;11.71;71.66;99153.22;125334;1097;64450;-95
2021/05/28 04:09:52;;;;;;;14.00;12.50;;;;;;;12.92;69.80;99157.94;125382;1104;64393;-94
2021/05/28 04:12:19;;;;;;;13.75;11.80;;;;;;;13.21;68.72;99151.39;125401;1104;64454;-94
2021/05/28 04:14:47;;;;;;;12.67;11.20;;;;;;;13.70;67.99;99155.73;125246;1104;64371;-95
2021/05/28 04:17:14;;;;;;;12.93;11.63;;;;;;;14.47;66.93;99148.69;125280;1104;64336;-94
2021/05/28 04:19:42;;;;;;;13.00;11.70;;;;;;;15.58;64.95;99143.09;125308;1104;64316;-94
2021/05/28 04:22:09;;;;;;;14.07;12.63;;;;;;;16.39;63.74;99145.13;125264;1104;64706;-93
2021/05/28 04:24:37;;;;;;;14.73;13.23;;;;;;;17.19;61.98;99146.02;125413;1104;64453;-93
2021/05/28 04:27:04;;;;;;;16.17;13.63;;;;;;;17.99;60.42;99142.98;125202;1097;64250;-93
2021/05/28 04:29:32;;;;;;;14.10;12.57;;;;;;;18.38;60.08;99142.84;125227;1097;64409;-93
2021/05/28 04:31:59;;;;;;;15.03;12.70;;;;;;;19.01;58.44;99139.40;125311;1104;64247;-93
2021/05/28 04:34:27;;;;;;;15.03;13.57;;;;;;;19.57;57.21;99142.77;125319;1104;64348;-92
2021/05/28 04:36:54;;;;;;;15.30;13.47;;;;;;;19.99;56.38;99144.81;125244;1104;64325;-94
2021/05/28 04:39:21;;;;;;;16.57;13.03;;;;;;;20.35;55.38;99148.23;125181;1104;64252;-94
2021/05/28 04:42:03;;;;;;;15.80;13.10;;;;;;;20.72;53.88;99140.78;125237;1104;64336;-93
2021/05/28 04:44:30;;;;;;;14.23;12.73;;;;;;;20.91;53.26;99145.09;125216;1104;64346;-93
2021/05/28 04:46:57;;;;;;;13.93;12.40;;;;;;;21.13;52.39;99143.61;125347;1097;64495;-93
2021/05/28 04:49:25;;;;;;;14.50;13.20;;;;;;;21.42;52.29;99148.59;125345;1104;64339;-93
2021/05/28 04:51:53;;;;;;;13.73;12.43;;;;;;;21.67;50.88;99150.30;125055;1104;64390;-94
2021/05/28 04:54:20;;;;;;;14.77;13.10;;;;;;;21.85;50.56;99147.41;125562;1104;64335;-92
2021/05/28 04:56:48;;;;;;;12.73;11.60;;;;;;;21.98;49.04;99155.00;125651;1104;64336;-93
2021/05/28 04:59:15;;;;;;;16.67;12.13;;;;;;;21.85;48.24;99150.13;125376;1097;64390;-94
2021/05/28 05:01:42;;;;;;;12.67;11.37;;;;;;;21.91;48.20;99160.28;127283;1104;62365;-92
2021/05/28 05:04:10;;;;;;;13.00;11.70;;;;;;;21.99;47.90;99161.30;127787;1104;63858;-91
2021/05/28 05:06:37;;;;;;;13.37;12.00;;;;;;;22.21;47.49;99151.61;126459;1097;64313;-92
2021/05/28 05:09:04;;;;;;;14.35;10.70;;;;;;;22.34;46.39;99160.05;125182;1104;64416;-91
2021/05/28 05:11:32;;;;;;;12.43;11.23;;;;;;;22.23;45.62;99163.15;125255;1097;64339;-93
2021/05/28 05:13:59;;;;;;;11.15;10.05;;;;;;;22.22;46.30;99162.30;125241;1096;64463;-92
2021/05/28 05:16:26;;;;;;;11.60;10.50;;;;;;;22.25;45.90;99159.23;125174;1104;64335;-93
2021/05/28 05:18:53;;;;;;;11.63;10.53;;;;;;;22.35;45.86;99162.61;125156;1104;64342;-93
2021/05/28 05:21:21;;;;;;;11.30;9.93;;;;;;;22.46;44.88;99164.10;125191;1104;64341;-93
2021/05/28 05:23:49;;;;;;;12.37;8.73;;;;;;;22.43;44.65;99163.58;125050;1104;64368;-94
2021/05/28 05:26:16;;;;;;;9.53;8.57;;;;;;;22.60;44.55;99165.23;125200;1097;64417;-94
2021/05/28 05:28:43;;;;;;;10.17;7.17;;;;;;;22.70;43.86;99157.72;125088;1097;64885;-94
2021/05/28 05:31:11;;;;;;;8.27;7.37;;;;;;;22.75;43.08;99155.32;125171;1097;64285;-93
2021/05/28 05:33:38;;;;;;;6.10;5.47;;;;;;;22.89;43.39;99156.44;125190;1104;64342;-94
2021/05/28 05:36:05;;;;;;;7.30;5.90;;;;;;;23.12;42.69;99166.55;125206;1105;64431;-93
2021/05/28 05:38:33;;;;;;;8.63;7.43;;;;;;;23.13;42.20;99165.52;125138;1104;64444;-93
2021/05/28 05:41:01;;;;;;;8.17;7.43;;;;;;;23.20;42.50;99164.62;125091;1104;64380;-95
2021/05/28 05:43:28;;;;;;;7.37;6.70;;;;;;;23.33;42.14;99168.59;125219;1104;64384;-94
2021/05/28 05:45:55;;;;;;;5.20;4.65;;;;;;;23.04;41.16;99158.41;125189;1104;64797;-94
2021/05/28 05:48:23;;;;;;;5.83;5.30;;;;;;;22.48;41.43;99172.89;125220;1097;64435;-94
2021/05/28 05:50:50;;;;;;;7.55;5.70;;;;;;;22.70;41.44;99171.30;125154;1097;64462;-94
2021/05/28 05:53:18;;;;;;;6.00;5.50;;;;;;;22.96;41.14;99167.42;125213;1104;64343;-93
2021/05/28 05:55:45;;;;;;;5.57;5.07;;;;;;;23.33;40.65;99180.34;125008;1104;64693;-93
2021/05/28 05:58:12;;;;;;;16.27;6.00;;;;;;;23.65;40.62;99162.92;125154;1104;64324;-93
2021/05/28 06:00:40;;;;;;;5.75;4.75;;;;;;;24.01;39.44;99180.50;125384;1104;64426;-93
2021/05/28 06:03:07;;;;;;;4.73;4.37;;;;;;;24.28;39.44;99179.90;125300;1097;64256;-93
2021/05/28 06:05:35;;;;;;;4.33;3.97;;;;;;;23.39;39.20;99181.50;125217;1097;64368;-93
2021/05/28 06:08:04;;;;;;;4.60;3.80;;;;;;;22.70;40.21;99186.77;125267;1097;64326;-94
2021/05/28 06:10:33;;;;;;;4.37;4.07;;;;;;;21.96;40.54;99189.63;125200;1097;64419;-94
2021/05/28 06:13:07;;;;;;;4.43;4.03;;;;;;;21.60;40.62;99199.97;127214;1104;64323;-94
2021/05/28 06:15:35;;;;;;;4.27;3.97;;;;;;;21.16;40.74;99194.77;125517;1104;64337;-94
2021/05/28 06:18:03;;;;;;;5.37;4.70;;;;;;;20.81;41.48;99193.98;125479;1104;64308;-92
2021/05/28 06:20:30;;;;;;;3.90;3.60;;;;;;;20.78;41.92;99205.16;126286;1097;64336;-93
2021/05/28 06:22:59;;;;;;;6.63;5.30;;;;;;;20.95;41.63;99204.19;125259;1096;64332;-92
2021/05/28 06:25:28;;;;;;;4.77;4.37;;;;;;;20.44;41.63;99200.55;125189;1097;64393;-93
2021/05/28 06:27:56;;;;;;;5.67;5.07;;;;;;;20.20;42.50;99205.83;125350;1096;64316;-93
2021/05/28 06:30:23;;;;;;;4.80;4.40;;;;;;;19.89;43.21;99196.30;125249;1104;64255;-94
2021/05/28 06:32:51;;;;;;;5.15;4.75;;;;;;;19.53;43.55;99200.85;125106;1104;64306;-93
2021/05/28 06:35:18;;;;;;;5.47;5.07;;;;;;;19.38;44.19;99202.39;125215;1097;64355;-93
2021/05/28 06:37:45;;;;;;;7.70;6.03;;;;;;;19.26;43.98;99199.92;125157;1104;64508;-91
2021/05/28 06:40:13;;;;;;;6.30;5.60;;;;;;;19.19;44.50;99201.52;125154;1097;64367;-91
2021/05/28 06:42:41;;;;;;;6.83;5.50;;;;;;;19.14;44.77;99202.98;125185;1104;64428;-91
2021/05/28 06:45:08;;;;;;;5.10;4.60;;;;;;;19.46;44.82;99192.52;125166;1104;64712;-91
2021/05/28 06:47:35;;;;;;;6.00;4.15;;;;;;;20.27;43.71;99188.76;125139;1097;64313;-92
2021/05/28 06:50:03;;;;;;;4.43;4.13;;;;;;;20.21;42.89;99196.69;125205;1097;64393;-91
2021/05/28 06:52:30;;;;;;;5.03;4.63;;;;;;;19.96;42.90;99193.83;125062;1104;64490;-92
2021/05/28 06:54:58;;;;;;;5.40;4.90;;;;;;;19.95;42.80;99187.54;125165;1104;64435;-91
2021/05/28 06:57:25;;;;;;;4.05;3.75;;;;;;;19.68;43.26;99195.78;125114;1104;64332;-91
2021/05/28 06:59:52;;;;;;;4.07;3.70;;;;;;;19.50;43.65;99198.46;125070;1097;64824;-93
2021/05/28 07:02:19;;;;;;;3.70;2.93;;;;;;;19.26;43.60;99191.81;125102;1097;64336;-90
2021/05/28 07:04:47;;;;;;;4.20;3.90;;;;;;;19.10;44.04;99201.61;124937;1097;64368;-92
2021/05/28 07:07:14;;;;;;;3.83;3.43;;;;;;;18.98;44.11;99203.66;124997;1104;64307;-91
2021/05/28 07:09:42;;;;;;;4.73;3.63;;;;;;;19.11;44.22;99196.03;125078;1097;64336;-91
2021/05/28 07:12:09;;;;;;;3.20;3.00;;;;;;;19.24;43.57;99199.22;125044;1104;64336;-92
2021/05/28 07:14:37;;;;;;;3.40;3.10;;;;;;;19.11;44.46;99198.73;124863;1104;64693;-91
2021/05/28 07:17:05;;;;;;;3.10;2.90;;;;;;;19.38;44.49;99191.58;124931;1104;64453;-92
2021/05/28 07:19:33;;;;;;;4.05;3.75;;;;;;;19.67;44.03;99191.39;125151;1096;64272;-90
2021/05/28 07:22:00;;;;;;;4.90;3.55;;;;;;;19.71;43.43;99190.06;125039;1097;64307;-90
2021/05/28 07:24:27;;;;;;;4.17;3.80;;;;;;;19.62;44.45;99191.83;125130;1104;64422;-92
2021/05/28 07:26:55;;;;;;;3.40;3.10;;;;;;;19.46;44.26;99206.05;125243;1104;64418;-91
2021/05/28 07:29:22;;;;;;;4.43;3.20;;;;;;;19.16;44.04;99195.59;125186;1104;64496;-88
2021/05/28 07:31:50;;;;;;;3.20;2.75;;;;;;;18.89;45.33;99202.72;125449;1097;64333;-92
2021/05/28 07:34:17;;;;;;;2.43;2.30;;;;;;;18.70;44.70;99200.94;125471;1096;64315;-93
2021/05/28 07:36:45;;;;;;;3.27;2.40;;;;;;;18.55;44.80;99203.27;125309;1096;64338;-93
2021/05/28 07:39:13;;;;;;;3.00;2.70;;;;;;;18.55;44.22;99203.27;125477;1104;64405;-92
2021/05/28 07:41:40;;;;;;;2.87;2.67;;;;;;;18.56;45.14;99196.89;125460;1104;64446;-93
2021/05/28 07:44:08;;;;;;;1.90;1.80;;;;;;;18.43;44.89;99197.23;126839;1097;64185;-92
2021/05/28 07:46:40;;;;;;;2.37;2.17;;;;;;;18.12;44.92;99199.30;125654;1104;64255;-93
2021/05/28 07:49:07;;;;;;;4.40;1.87;;;;;;;17.88;44.37;99207.03;125398;1097;64249;-92
2021/05/28 07:51:35;;;;;;;2.00;1.90;;;;;;;17.85;44.57;99205.47;125329;1097;64273;-93
2021/05/28 07:54:05;;;;;;;2.00;1.90;;;;;;;18.15;44.89;99207.10;125164;1104;64377;-93
2021/05/28 07:56:33;;;;;;;2.50;1.95;;;;;;;18.49;44.76;99198.48;125226;1104;64264;-93
2021/05/28 07:59:01;;;;;;;2.80;1.90;;;;;;;18.79;45.45;99189.26;125530;1104;64277;-93
2021/05/28 08:01:29;;;;;;;2.40;2.20;;;;;;;19.16;45.03;99182.08;125310;1096;64329;-94
2021/05/28 08:03:57;;;;;;;2.05;1.95;;;;;;;19.25;43.66;99194.69;125159;1097;64419;-93
2021/05/28 08:06:26;;;;;;;2.93;2.30;;;;;;;19.14;44.19;99187.66;125202;1104;64416;-94
2021/05/28 08:08:54;;;;;;;2.37;2.17;;;;;;;19.20;43.77;99188.89;125239;1104;64438;-94
2021/05/28 08:11:23;;;;;;;2.20;2.10;;;;;;;19.08;43.16;99177.44;125255;1104;64443;-92
2021/05/28 08:13:50;;;;;;;3.40;2.37;;;;;;;19.18;43.16;99189.03;126327;1104;64269;-88
2021/05/28 08:16:18;;;;;;;2.70;2.60;;;;;;;19.18;43.99;99182.78;124857;1104;64477;-89
2021/05/28 08:18:45;;;;;;;2.90;2.63;;;;;;;19.13;43.65;99191.34;125053;1104;64480;-89
2021/05/28 08:21:13;;;;;;;2.73;2.53;;;;;;;18.89;43.99;99185.67;124980;1097;64419;-89
2021/05/28 08:23:40;;;;;;;2.53;2.33;;;;;;;18.72;43.63;99198.95;125094;1097;64336;-90
2021/05/28 08:26:08;;;;;;;2.50;2.40;;;;;;;18.65;44.06;99198.69;124913;1104;64416;-90
2021/05/28 08:28:35;;;;;;;2.50;2.30;;;;;;;18.50;43.40;99204.72;124941;1104;64428;-90
2021/05/28 08:31:04;;;;;;;2.30;2.20;;;;;;;18.29;43.37;99203.08;125075;1104;64499;-91
2021/05/28 08:33:32;;;;;;;3.00;2.50;;;;;;;18.01;43.98;99202.18;125023;1104;64256;-90
2021/05/28 08:36:00;;;;;;;2.30;2.10;;;;;;;17.90;44.45;99203.16;125064;1104;64345;-89
2021/05/28 08:38:27;;;;;;;3.03;2.53;;;;;;;17.99;45.20;99201.47;125006;1097;64253;-88
2021/05/28 08:40:55;;;;;;;3.47;2.23;;;;;;;18.05;45.15;99197.34;124980;1097;64333;-90
2021/05/28 08:43:22;;;;;;;2.73;2.53;;;;;;;18.00;44.54;99208.55;124928;1104;64378;-89
2021/05/28 08:45:50;;;;;;;2.80;2.60;;;;;;;17.98;45.31;99210.53;124882;1104;64347;-90
2021/05/28 08:48:19;;;;;;;2.50;2.30;;;;;;;18.05;45.16;99205.42;125001;1097;64255;-89
2021/05/28 08:50:48;;;;;;;3.58;2.20;;;;;;;18.24;45.30;99199.97;124856;1104;64355;-89
2021/05/28 08:53:16;;;;;;;2.60;2.13;;;;;;;18.77;44.65;99199.39;125034;1104;64270;-90
2021/05/28 08:55:45;;;;;;;3.60;2.20;;;;;;;19.58;44.83;99184.17;125038;1104;64371;-89
2021/05/28 08:58:15;;;;;;;3.10;2.90;;;;;;;20.25;44.20;99177.27;125199;1097;64795;-88
2021/05/28 09:00:47;;;;;;;2.47;2.27;;;;;;;20.60;43.63;99180.86;125368;1104;64329;-87
2021/05/28 09:03:29;;;;;;;2.47;2.30;;;;;;;20.49;41.88;99183.83;125241;1097;64342;-84
2021/05/28 09:06:02;;;;;;;2.83;2.60;;;;;;;20.32;42.19;99182.88;125232;1104;64256;-93
2021/05/28 09:08:35;;;;;;;2.53;2.33;;;;;;;20.18;41.75;99187.88;126305;1097;64281;-91
2021/05/28 09:11:13;;;;;;;2.37;2.17;;;;;;;19.95;41.85;99182.13;125155;1104;64355;-91
2021/05/28 09:13:57;;;;;;;2.27;1.77;;;;;;;20.07;41.84;99181.89;125415;1104;64413;-93
2021/05/28 09:16:27;;;;;;;1.70;1.60;;;;;;;20.24;42.00;99175.55;126194;1104;64530;-93
2021/05/28 09:19:00;;;;;;;2.10;2.00;;;;;;;20.28;41.79;99174.23;126366;1097;64165;-93
2021/05/28 09:21:34;;;;;;;2.47;2.07;;;;;;;20.38;40.88;99176.84;126056;1104;64191;-93
2021/05/28 09:24:06;;;;;;;2.20;2.10;;;;;;;20.31;40.22;99178.48;125626;1097;64460;-93
2021/05/28 09:26:37;;;;;;;2.33;2.13;;;;;;;20.13;40.11;99181.25;126015;1104;64310;-90
2021/05/28 09:29:06;;;;;;;2.30;2.10;;;;;;;19.90;40.26;99173.63;126557;1104;64153;-91
2021/05/28 09:31:35;;;;;;;2.40;2.27;;;;;;;19.81;40.70;99173.75;126471;1104;64312;-92
2021/05/28 09:34:04;;;;;;;1.90;1.80;;;;;;;19.92;41.42;99173.49;126634;1097;64268;-92
2021/05/28 09:36:39;;;;;;;2.37;2.17;;;;;;;20.15;40.48;99171.96;126699;1104;64409;-92
2021/05/28 09:39:12;;;;;;;2.73;2.53;;;;;;;20.18;38.86;99173.50;125833;1104;63000;-91
2021/05/28 09:41:54;;;;;;;3.23;2.10;;;;;;;20.13;39.55;99165.85;125828;1104;64442;-92
2021/05/28 09:44:26;;;;;;;2.80;1.73;;;;;;;20.53;41.10;99172.49;126078;1104;63125;-93
2021/05/28 09:46:57;;;;;;;1.93;1.83;;;;;;;20.98;41.10;99170.49;125856;1104;64235;-93
2021/05/28 09:49:32;;;;;;;2.87;2.23;;;;;;;21.29;40.28;99172.61;125768;1104;64342;-93
2021/05/28 09:52:12;;;;;;;2.23;2.03;;;;;;;21.68;40.81;99160.12;125797;1097;64308;-94
2021/05/28 09:54:54;;;;;;;1.73;1.63;;;;;;;22.01;40.29;99170.09;125969;1104;64344;-93
2021/05/28 09:57:52;;;;;;;2.10;1.90;;;;;;;21.86;38.84;99165.38;125972;1104;64391;-92
2021/05/28 10:00:32;;;;;;;2.37;2.17;;;;;;;21.45;37.74;99172.66;125986;1097;64410;-91
2021/05/28 10:03:12;;;;;;;;;;;;;;;20.98;38.60;99168.63;126077;1104;64342;-94
2021/05/28 10:05:44;;;;;;;2.57;2.37;;;;;;;20.71;39.67;99171.59;125955;1099;64221;-92
2021/05/28 10:08:15;;;;;;;2.90;1.63;;;;;;;20.45;40.09;99166.20;126184;1104;64297;-93
2021/05/28 10:10:45;;;;;;;1.50;1.40;;;;;;;20.08;40.33;99167.34;126214;1104;64348;-94
2021/05/28 10:13:16;;;;;;;2.67;1.97;;;;;;;19.67;41.04;99169.77;126415;1104;64792;-93
2021/05/28 10:16:07;;;;;;;2.17;1.63;;;;;;;19.25;41.82;99175.77;126227;1104;64291;-92
2021/05/28 10:18:35;;;;;;;2.10;1.80;;;;;;;18.90;42.30;99171.16;126386;1097;64259;-93
2021/05/28 10:21:03;;;;;;;1.83;1.73;;;;;;;18.61;42.97;99178.38;126525;1097;64380;-93
2021/05/28 10:23:31;;;;;;;2.80;2.00;;;;;;;18.40;43.40;99172.36;126133;1104;64407;-94
2021/05/28 10:25:58;;;;;;;1.87;1.77;;;;;;;18.29;43.71;99173.41;127795;1104;64443;-90
2021/05/28 10:28:32;;;;;;;3.70;2.40;;;;;;;18.21;43.96;99179.53;128314;1104;62948;-89
2021/05/28 10:30:59;;;;;;;3.67;2.70;;;;;;;18.06;44.23;99183.72;128252;1104;62814;-88
2021/05/28 10:33:35;;;;;;;4.37;2.60;;;;;;;18.07;44.29;99179.17;128410;1104;61922;-89
2021/05/28 10:36:07;;;;;;;3.87;2.87;;;;;;;18.06;44.26;99181.02;128302;1104;61991;-89
2021/05/28 10:38:46;;;;;;;3.63;3.03;;;;;;;18.12;43.76;99184.98;128407;1104;61834;-92
2021/05/28 10:41:13;;;;;;;3.27;3.03;;;;;;;18.31;43.68;99184.06;128426;1104;61816;-90
2021/05/28 10:43:50;;;;;;;2.60;2.40;;;;;;;18.56;44.16;99185.22;128434;1104;61694;-89
2021/05/28 10:46:18;;;;;;;3.80;3.50;;;;;;;18.82;43.07;99170.05;128396;1104;63147;-91
2021/05/28 10:48:46;;;;;;;4.20;3.87;;;;;;;18.94;43.33;99170.71;128358;1104;64013;-92
2021/05/28 10:51:33;;;;;;;3.67;3.40;;;;;;;19.04;43.19;99168.80;126154;1104;64349;-91
2021/05/28 10:54:00;;;;;;;4.05;3.65;;;;;;;19.23;43.44;99172.37;125701;1104;64341;-92
2021/05/28 10:56:43;;;;;;;4.60;4.20;;;;;;;19.38;42.65;99169.95;125681;1104;64339;-92
2021/05/28 10:59:16;;;;;;;4.73;4.33;;;;;;;19.56;43.26;99165.39;125637;1097;64336;-94
2021/05/28 11:01:52;;;;;;;4.60;4.20;;;;;;;19.67;42.41;99159.80;125354;1104;64309;-93
2021/05/28 11:04:23;;;;;;;3.53;2.77;;;;;;;19.70;42.74;99166.74;125622;1104;64317;-93
2021/05/28 11:06:58;;;;;;;3.50;3.20;;;;;;;19.66;41.99;99163.48;125457;1097;64330;-94
2021/05/28 11:09:46;;;;;;;4.50;3.20;;;;;;;19.63;42.61;99171.88;125196;1104;64248;-93
2021/05/28 11:12:16;;;;;;;3.13;2.93;;;;;;;19.49;43.16;99172.45;125170;1097;64363;-91
2021/05/28 11:15:01;;;;;;;3.20;3.00;;;;;;;19.16;43.51;99179.38;125095;1104;64406;-91
2021/05/28 11:17:29;;;;;;;3.40;3.20;;;;;;;19.17;44.02;99164.85;125229;1104;64352;-92
2021/05/28 11:20:04;;;;;;;3.03;2.73;;;;;;;19.28;44.63;99170.89;125304;1096;64365;-93
2021/05/28 11:22:39;;;;;;;2.40;2.20;;;;;;;19.52;44.47;99166.72;125196;1104;64241;-87
2021/05/28 11:25:10;;;;;;;2.47;2.27;;;;;;;19.71;44.15;99152.20;124947;1104;64256;-86
2021/05/28 11:27:40;;;;;;;2.00;1.90;;;;;;;19.82;43.39;99156.51;124987;1104;64402;-94
2021/05/28 11:30:07;;;;;;;;;;;;;;;19.92;43.08;99157.27;125313;1104;64367;-90
2021/05/28 11:32:48;;;;;;;1.97;1.70;;;;;;;20.04;43.04;99149.75;124956;1097;64823;-93
2021/05/28 11:35:21;;;;;;;3.23;1.50;;;;;;;20.23;43.97;99144.09;125435;1097;64282;-95
2021/05/28 11:38:00;;;;;;;1.20;1.10;;;;;;;20.22;40.99;99142.41;125144;1104;64250;-89